createdAt,value
2018-05-18T00:03:06.381Z,24.57
2018-05-18T00:08:09.478Z,20.00
2018-05-18T00:13:12.971Z,23.67
2018-05-18T00:18:16.089Z,21.30
2018-05-18T00:23:20.842Z,22.67
2018-05-18T00:28:24.407Z,26.30
2018-05-18T00:33:28.647Z,21.97
2018-05-18T00:38:31.807Z,26.50
2018-05-18T00:43:35.711Z,23.73
2018-05-18T00:48:38.797Z,27.53
2018-05-18T00:53:42.415Z,20.33
2018-05-18T00:58:46.344Z,23.13
2018-05-18T01:03:49.494Z,22.87
2018-05-18T01:08:53.072Z,20.73
2018-05-18T01:13:56.250Z,21.23
2018-05-18T01:18:59.447Z,20.73
2018-05-18T01:24:02.595Z,19.80
2018-05-18T01:29:07.143Z,22.47
2018-05-18T01:34:11.111Z,26.73
2018-05-18T01:39:15.023Z,28.70
2018-05-18T01:44:18.990Z,23.50
2018-05-18T01:49:22.946Z,24.87
2018-05-18T01:54:26.179Z,19.20
2018-05-18T01:59:29.542Z,17.40
2018-05-18T02:04:33.652Z,23.87
2018-05-18T02:09:37.935Z,19.73
2018-05-18T02:14:41.102Z,19.27
2018-05-18T02:19:44.587Z,22.27
2018-05-18T02:24:48.806Z,20.67
2018-05-18T02:29:51.927Z,23.40
2018-05-18T02:34:55.015Z,22.13
2018-05-18T02:39:58.891Z,20.93
2018-05-18T02:45:03.477Z,20.37
2018-05-18T02:50:06.745Z,21.87
2018-05-18T02:55:09.971Z,28.37
2018-05-18T03:00:14.057Z,19.30
2018-05-18T03:05:17.622Z,23.13
2018-05-18T03:10:21.855Z,19.80
2018-05-18T03:15:24.959Z,26.00
2018-05-18T03:20:29.183Z,23.53
2018-05-18T03:25:32.315Z,28.03
2018-05-18T03:30:36.178Z,23.53
2018-05-18T03:35:39.269Z,27.37
2018-05-18T03:40:43.150Z,25.20
2018-05-18T03:45:46.251Z,29.10
2018-05-18T03:50:50.275Z,32.97
2018-05-18T03:55:54.365Z,39.70
2018-05-18T04:00:57.952Z,43.03
2018-05-18T04:11:48.284Z,49.33
2018-05-18T04:16:52.139Z,48.17
2018-05-18T04:21:55.244Z,51.37
2018-05-18T04:26:58.483Z,48.97
2018-05-18T04:32:02.447Z,46.10
2018-05-18T04:37:06.391Z,49.47
2018-05-18T04:42:09.884Z,53.27
2018-05-18T04:47:13.758Z,54.13
2018-05-18T04:52:18.383Z,54.83
2018-05-18T04:57:21.508Z,62.73
2018-05-18T05:02:24.622Z,59.53
2018-05-18T05:07:27.702Z,60.83
2018-05-18T05:12:30.869Z,58.17
2018-05-18T05:17:33.929Z,59.10
2018-05-18T05:22:37.027Z,55.93
2018-05-18T05:27:40.130Z,42.90
2018-05-18T05:32:43.236Z,38.00
2018-05-18T05:37:46.355Z,34.90
2018-05-18T05:42:50.226Z,34.73
2018-05-18T05:47:53.326Z,29.97
2018-05-18T05:52:56.431Z,25.63
2018-05-18T05:57:59.517Z,24.83
2018-05-18T06:03:03.383Z,20.50
2018-05-18T06:08:06.487Z,19.50
2018-05-18T06:13:09.607Z,26.63
2018-05-18T06:18:13.844Z,25.83
2018-05-18T06:23:16.953Z,23.50
2018-05-18T06:28:20.839Z,29.30
2018-05-18T06:33:23.995Z,33.03
2018-05-18T06:38:28.422Z,39.27
2018-05-18T06:43:32.870Z,37.50
2018-05-18T06:48:37.098Z,42.10
2018-05-18T06:53:40.177Z,41.23
2018-05-18T06:58:43.403Z,48.20
2018-05-18T07:03:46.544Z,54.47
2018-05-18T07:08:49.859Z,57.57
2018-05-18T07:13:52.968Z,61.83
2018-05-18T07:18:56.059Z,62.25
2018-05-18T07:24:00.303Z,59.20
2018-05-18T07:29:04.746Z,62.23
2018-05-18T07:34:09.341Z,55.93
2018-05-18T07:39:12.437Z,56.70
2018-05-18T07:44:15.527Z,57.67
2018-05-18T07:49:18.651Z,51.83
2018-05-18T07:54:21.749Z,52.53
2018-05-18T07:59:24.899Z,46.80
2018-05-18T08:04:27.943Z,45.90
2018-05-18T08:09:31.038Z,44.72
2018-05-18T08:14:34.136Z,41.00
2018-05-18T08:19:38.572Z,40.23
2018-05-18T08:24:43.358Z,42.83
2018-05-18T08:29:47.791Z,40.00
2018-05-18T08:34:50.874Z,33.93
2018-05-18T08:39:55.322Z,30.30
2018-05-18T08:44:59.927Z,22.67
2018-05-18T08:50:04.449Z,21.27
2018-05-18T08:55:08.810Z,26.73
2018-05-18T09:00:12.297Z,23.33
2018-05-18T09:05:15.411Z,17.57
2018-05-18T09:10:18.506Z,21.63
2018-05-18T09:15:22.951Z,27.43
2018-05-18T09:20:26.843Z,29.50
2018-05-18T09:25:31.282Z,31.07
2018-05-18T09:30:35.164Z,31.43
2018-05-18T09:35:39.582Z,28.97
2018-05-18T09:40:43.087Z,32.97
2018-05-18T09:45:46.179Z,29.52
2018-05-18T09:50:49.282Z,29.73
2018-05-18T09:55:53.151Z,33.17
2018-05-18T10:00:56.250Z,34.33
2018-05-18T10:05:59.346Z,36.57
2018-05-18T10:11:03.566Z,31.57
2018-05-18T10:16:08.010Z,23.40
2018-05-18T10:21:11.107Z,23.23
2018-05-18T10:26:14.958Z,21.60
2018-05-18T10:31:19.396Z,23.70
2018-05-18T10:36:22.871Z,23.53
2018-05-18T10:41:27.319Z,24.00
2018-05-18T10:46:31.907Z,23.40
2018-05-18T10:51:36.363Z,20.87
2018-05-18T10:56:40.795Z,19.60
2018-05-18T11:01:44.270Z,24.43
2018-05-18T11:06:48.120Z,17.47
2018-05-18T11:11:52.558Z,22.27
2018-05-18T11:16:56.987Z,16.53
2018-05-18T11:22:00.851Z,15.73
2018-05-18T11:27:04.332Z,18.23
2018-05-18T11:32:07.490Z,15.50
2018-05-18T11:37:12.210Z,18.03
2018-05-18T11:42:15.691Z,19.40
2018-05-18T11:47:18.794Z,16.97
2018-05-18T11:52:22.643Z,16.13
2018-05-18T11:57:25.746Z,19.80
2018-05-18T12:02:29.143Z,18.80
2018-05-18T12:07:32.903Z,20.50
2018-05-18T12:12:37.119Z,13.53
2018-05-18T12:17:40.214Z,13.10
2018-05-18T12:22:44.668Z,19.77
2018-05-18T12:27:47.760Z,18.27
2018-05-18T12:32:50.839Z,12.47
2018-05-18T12:37:54.682Z,18.03
2018-05-18T12:42:59.488Z,12.27
2018-05-18T12:48:03.918Z,16.50
2018-05-18T12:53:07.007Z,15.63
2018-05-18T12:58:10.090Z,16.50
2018-05-18T13:03:13.174Z,16.90
2018-05-18T13:08:16.354Z,18.70
2018-05-18T13:13:20.479Z,17.67
2018-05-18T13:18:23.559Z,21.73
2018-05-18T13:23:27.990Z,18.97
2018-05-18T13:28:32.420Z,15.60
2018-05-18T13:33:36.268Z,17.67
2018-05-18T13:38:39.408Z,14.67
2018-05-18T13:43:43.210Z,23.80
2018-05-18T13:48:46.308Z,17.07
2018-05-18T13:53:49.390Z,17.10
2018-05-18T13:58:53.615Z,14.37
2018-05-18T14:03:57.099Z,18.73
2018-05-18T14:09:01.324Z,17.83
2018-05-18T14:14:04.410Z,13.93
2018-05-18T14:19:08.262Z,15.53
2018-05-18T14:24:11.347Z,13.67
2018-05-18T14:29:15.567Z,14.30
2018-05-18T14:34:18.659Z,15.83
2018-05-18T14:39:21.743Z,13.87
2018-05-18T14:44:24.834Z,16.03
2018-05-18T14:49:29.063Z,17.33
2018-05-18T14:54:33.510Z,15.93
2018-05-18T14:59:36.988Z,16.73
2018-05-18T15:04:41.208Z,13.07
2018-05-18T15:09:44.686Z,17.60
2018-05-18T15:14:49.126Z,12.23
2018-05-18T15:19:52.603Z,12.70
2018-05-18T15:24:56.525Z,17.17
2018-05-18T15:30:00.684Z,14.97
2018-05-18T15:35:05.118Z,12.83
2018-05-18T15:40:08.598Z,13.40
2018-05-18T15:45:11.678Z,14.53
2018-05-18T15:50:14.771Z,12.73
2018-05-18T15:55:19.217Z,13.07
2018-05-18T16:00:23.071Z,14.23
2018-05-18T16:05:26.923Z,14.43
2018-05-18T16:10:31.184Z,15.77
2018-05-18T16:15:35.625Z,14.23
2018-05-18T16:20:40.215Z,13.27
2018-05-18T16:25:43.298Z,13.20
2018-05-18T16:30:46.387Z,14.17
2018-05-18T16:35:50.621Z,11.57
2018-05-18T16:40:54.462Z,12.87
2018-05-18T16:45:57.546Z,12.33
2018-05-18T16:51:01.779Z,13.80
2018-05-18T16:56:06.221Z,14.63
2018-05-18T17:01:10.825Z,18.37
2018-05-18T17:06:13.923Z,13.53
2018-05-18T17:11:17.015Z,12.37
2018-05-18T17:16:20.123Z,10.03
2018-05-18T17:21:23.213Z,14.50
2018-05-18T17:26:27.074Z,12.63
2018-05-18T17:31:30.159Z,14.47
2018-05-18T17:36:34.015Z,12.33
2018-05-18T17:41:38.243Z,12.47
2018-05-18T17:46:42.835Z,14.83
2018-05-18T17:51:46.316Z,16.03
2018-05-18T17:56:49.411Z,16.30
2018-05-18T18:01:53.275Z,17.20
2018-05-18T18:06:56.754Z,12.37
2018-05-18T18:11:59.848Z,14.37
2018-05-18T18:17:05.020Z,15.57
2018-05-18T18:22:08.106Z,14.90
2018-05-18T18:27:11.195Z,16.43
2018-05-18T18:32:14.319Z,13.20
2018-05-18T18:37:18.783Z,16.20
2018-05-18T18:42:23.011Z,16.63
2018-05-18T18:47:26.504Z,12.57
2018-05-18T18:52:29.595Z,17.63
2018-05-18T18:57:32.695Z,11.63
2018-05-18T19:02:36.694Z,11.97
2018-05-18T19:07:39.782Z,10.53
2018-05-18T19:12:45.346Z,10.67
2018-05-18T19:17:48.934Z,14.57
2018-05-18T19:22:53.159Z,9.13
2018-05-18T19:27:56.246Z,12.43
2018-05-18T19:32:59.723Z,9.85
2018-05-18T19:38:02.807Z,10.17
2018-05-18T19:43:06.350Z,8.50
2018-05-18T19:48:09.453Z,12.90
2018-05-18T19:53:14.011Z,13.23
2018-05-18T19:58:18.027Z,12.87
2018-05-18T20:03:21.132Z,13.40
2018-05-18T20:08:26.620Z,16.17
2018-05-18T20:13:29.707Z,13.73
2018-05-18T20:18:33.192Z,14.43
2018-05-18T20:23:36.391Z,14.03
2018-05-18T20:28:40.246Z,16.33
2018-05-18T20:33:44.179Z,14.97
2018-05-18T20:38:47.862Z,13.07
2018-05-18T20:43:50.958Z,13.17
2018-05-18T20:48:54.159Z,12.00
2018-05-18T20:53:58.129Z,15.40
2018-05-18T20:59:02.151Z,16.00
2018-05-18T21:04:05.281Z,15.90
2018-05-18T21:09:08.447Z,14.37
2018-05-18T21:14:13.488Z,15.55
2018-05-18T21:19:17.382Z,14.00
2018-05-18T21:24:20.994Z,12.93
2018-05-18T21:29:24.105Z,10.77
2018-05-18T21:34:27.210Z,14.27
2018-05-18T21:39:30.700Z,13.17
2018-05-18T21:44:34.943Z,13.10
2018-05-18T21:49:38.051Z,14.73
2018-05-18T21:54:41.147Z,13.27
2018-05-18T21:59:45.382Z,19.00
2018-05-18T22:04:49.249Z,15.43
2018-05-18T22:09:53.859Z,13.80
2018-05-18T22:14:57.919Z,14.87
2018-05-18T22:20:02.558Z,13.87
2018-05-18T22:25:07.040Z,17.67
2018-05-18T22:30:10.899Z,17.83
2018-05-18T22:35:14.770Z,16.40
2018-05-18T22:40:18.700Z,16.40
2018-05-18T22:45:22.572Z,13.53
2018-05-18T22:50:26.891Z,12.37
2018-05-18T22:55:29.976Z,15.90
2018-05-18T23:00:33.826Z,18.40
2018-05-18T23:05:37.687Z,16.90
2018-05-18T23:10:40.766Z,11.47
2018-05-18T23:15:43.854Z,14.23
2018-05-18T23:20:46.943Z,12.47
2018-05-18T23:25:51.276Z,15.20
2018-05-18T23:30:54.259Z,13.07
2018-05-18T23:35:57.346Z,13.07
2018-05-18T23:41:00.648Z,16.50
2018-05-18T23:46:03.820Z,13.87
2018-05-18T23:51:07.667Z,14.13
2018-05-18T23:56:10.762Z,13.85
